KVIH/VIH METAR and TAF weather

Enter ICAO airport designator
Station Type Date Time Source
KVIH METAR 2018/12/13 08:27 UTC NOAA

KVIH 130827Z AUTO 14007KT 10SM SCT020 OVC055 08/06 A2989 RMK AO2 T00830061


Station Type Date Time Source
KVIH Decoded METAR 2018/12/13 08:27 UTC NOAA

ROLLA/VICHY ROLLA NATIONAL, MO, United States (KVIH) 38-08N 91-46W 333M
Dec 13, 2018 - 03:27 AM EST / 2018.12.13 0827 UTC
Wind: from the SE (140 degrees) at 8 MPH (7 KT):0
Visibility: 10 mile(s):0
Sky conditions: overcast
Temperature: 46.9 F (8.3 C)
Dew Point: 43.0 F (6.1 C)
Relative Humidity: 86%
Pressure (altimeter): 29.89 in. Hg (1012 hPa)
ob: KVIH 130827Z AUTO 14007KT 10SM SCT020 OVC055 08/06 A2989 RMK AO2 T00830061
cycle: 8

Station Type Date Time Source
KVIH TAF UTC NOAA

Error!


Example: see airport list